createdAt,value
2022-09-07T00:01:49.497Z,17.78
2022-09-07T00:04:31.324Z,17.79
2022-09-07T00:07:00.860Z,17.80
2022-09-07T00:09:30.715Z,17.83
2022-09-07T00:12:00.754Z,17.87
2022-09-07T00:14:27.586Z,17.89
2022-09-07T00:16:57.324Z,17.83
2022-09-07T00:19:24.166Z,17.90
2022-09-07T00:21:51.101Z,17.81
2022-09-07T00:24:20.246Z,17.88
2022-09-07T00:26:47.053Z,17.75
2022-09-07T00:29:13.942Z,17.79
2022-09-07T00:31:40.829Z,17.71
2022-09-07T00:34:12.891Z,17.72
2022-09-07T00:36:39.903Z,17.67
2022-09-07T00:39:06.714Z,17.63
2022-09-07T00:41:35.652Z,17.66
2022-09-07T00:44:40.385Z,17.70
2022-09-07T00:47:23.215Z,17.66
2022-09-07T00:49:58.100Z,17.49
2022-09-07T00:52:27.280Z,17.52
2022-09-07T00:55:06.150Z,17.53
2022-09-07T00:57:36.440Z,17.42
2022-09-07T01:00:06.447Z,17.51
2022-09-07T01:02:33.398Z,17.45
2022-09-07T01:05:31.820Z,17.52
2022-09-07T01:07:59.563Z,17.54
2022-09-07T01:10:31.703Z,17.54
2022-09-07T01:13:00.143Z,17.55
2022-09-07T01:15:42.990Z,17.57
2022-09-07T01:18:24.065Z,17.61
2022-09-07T01:21:07.532Z,17.60
2022-09-07T01:24:02.527Z,17.68
2022-09-07T01:27:06.880Z,17.58
2022-09-07T01:29:36.580Z,17.60
2022-09-07T01:32:12.216Z,17.63
2022-09-07T01:34:43.808Z,17.63
2022-09-07T01:37:14.748Z,17.67
2022-09-07T01:40:06.611Z,17.70
2022-09-07T01:42:41.193Z,17.61
2022-09-07T01:45:13.040Z,17.61
2022-09-07T01:47:49.835Z,17.55
2022-09-07T01:50:37.801Z,17.64
2022-09-07T01:53:26.348Z,17.70
2022-09-07T01:55:52.984Z,17.69
2022-09-07T01:58:38.753Z,17.62
2022-09-07T02:01:11.217Z,17.56
2022-09-07T02:03:47.272Z,17.57
2022-09-07T02:06:15.806Z,17.56
2022-09-07T02:09:41.533Z,17.55
2022-09-07T02:12:22.791Z,17.44
2022-09-07T02:14:57.287Z,17.44
2022-09-07T02:17:34.500Z,17.44
2022-09-07T02:20:11.384Z,17.39
2022-09-07T02:22:42.694Z,17.41
2022-09-07T02:25:12.805Z,17.45
2022-09-07T02:27:55.425Z,17.42
2022-09-07T02:30:22.550Z,17.37
2022-09-07T02:32:49.437Z,17.36
2022-09-07T02:35:16.604Z,17.41
2022-09-07T02:37:45.523Z,17.37
2022-09-07T02:40:13.183Z,17.37
2022-09-07T02:42:39.952Z,17.26
2022-09-07T02:45:09.910Z,17.16
2022-09-07T02:48:04.364Z,17.09
2022-09-07T02:50:43.438Z,17.03
2022-09-07T02:53:39.409Z,16.88
2022-09-07T02:56:27.941Z,16.86
2022-09-07T02:59:12.691Z,16.91
2022-09-07T03:02:15.044Z,17.04
2022-09-07T03:05:03.582Z,17.09
2022-09-07T03:07:36.243Z,17.05
2022-09-07T03:10:06.648Z,17.11
2022-09-07T03:12:45.599Z,17.11
2022-09-07T03:15:18.482Z,17.11
2022-09-07T03:17:45.934Z,17.20
2022-09-07T03:20:13.436Z,17.34
2022-09-07T03:22:40.558Z,17.32
2022-09-07T03:25:07.807Z,17.39
2022-09-07T03:27:35.458Z,17.32
2022-09-07T03:30:02.625Z,17.27
2022-09-07T03:32:35.197Z,17.32
2022-09-07T03:35:03.372Z,17.21
2022-09-07T03:37:30.332Z,17.18
2022-09-07T03:39:57.331Z,17.10
2022-09-07T03:42:24.820Z,16.95
2022-09-07T03:44:51.668Z,16.90
2022-09-07T03:47:21.071Z,16.95
2022-09-07T03:49:49.175Z,16.98
2022-09-07T03:52:19.350Z,17.05
2022-09-07T03:54:48.810Z,17.05
2022-09-07T03:57:20.245Z,17.04
2022-09-07T03:59:47.365Z,17.01
2022-09-07T04:02:14.462Z,17.10
2022-09-07T04:04:43.246Z,17.10
2022-09-07T04:07:16.389Z,17.12
2022-09-07T04:09:45.465Z,17.15
2022-09-07T04:12:12.214Z,17.14
2022-09-07T04:14:39.988Z,17.18
2022-09-07T04:17:08.882Z,17.18
2022-09-07T04:19:39.657Z,17.16
2022-09-07T04:22:06.973Z,17.18
2022-09-07T04:24:33.826Z,17.19
2022-09-07T04:27:00.834Z,17.15
2022-09-07T04:29:27.525Z,17.14
2022-09-07T04:31:54.134Z,17.22
2022-09-07T04:34:20.956Z,17.17
2022-09-07T04:36:47.696Z,17.09
2022-09-07T04:39:14.468Z,17.09
2022-09-07T04:41:41.396Z,17.06
2022-09-07T04:44:08.554Z,16.95
2022-09-07T04:46:36.754Z,16.99
2022-09-07T04:49:08.795Z,16.97
2022-09-07T04:51:36.072Z,16.95
2022-09-07T04:54:03.922Z,16.92
2022-09-07T04:56:32.249Z,16.84
2022-09-07T04:59:01.306Z,16.85
2022-09-07T05:01:31.609Z,16.84
2022-09-07T05:04:00.885Z,16.78
2022-09-07T05:06:28.492Z,16.78
2022-09-07T05:08:56.891Z,16.77
2022-09-07T05:11:28.755Z,16.80
2022-09-07T05:13:58.102Z,16.75
2022-09-07T05:16:25.905Z,16.76
2022-09-07T05:18:55.108Z,16.78
2022-09-07T05:21:24.482Z,16.78
2022-09-07T05:23:56.352Z,16.77
2022-09-07T05:26:24.999Z,16.74
2022-09-07T05:28:52.474Z,16.78
2022-09-07T05:31:22.530Z,16.83
2022-09-07T05:36:41.468Z,16.85
2022-09-07T05:39:09.255Z,17.04
2022-09-07T05:41:36.357Z,17.18
2022-09-07T05:46:53.977Z,17.30
2022-09-07T05:49:20.907Z,17.37
2022-09-07T05:51:48.301Z,17.40
2022-09-07T05:54:15.080Z,17.52
2022-09-07T05:56:42.140Z,17.54
2022-09-07T05:59:09.077Z,17.49
2022-09-07T06:01:37.673Z,17.53
2022-09-07T06:04:04.417Z,17.51
2022-09-07T06:06:36.265Z,17.58
2022-09-07T06:09:07.123Z,17.55
2022-09-07T06:11:34.345Z,17.59
2022-09-07T06:14:01.100Z,17.58
2022-09-07T06:16:29.793Z,17.71
2022-09-07T06:18:56.510Z,17.82
2022-09-07T06:21:24.692Z,18.04
2022-09-07T06:23:51.874Z,18.22
2022-09-07T06:26:20.131Z,18.26
2022-09-07T06:28:50.262Z,18.33
2022-09-07T06:31:21.781Z,18.48
2022-09-07T06:33:49.845Z,18.71
2022-09-07T06:36:18.931Z,18.81
2022-09-07T06:38:49.754Z,18.88
2022-09-07T06:44:18.222Z,18.69
2022-09-07T06:47:02.953Z,18.68
2022-09-07T06:49:32.840Z,18.74
2022-09-07T06:52:02.001Z,18.78
2022-09-07T06:57:16.575Z,18.86
2022-09-07T06:59:43.304Z,18.79
2022-09-07T07:02:15.451Z,18.73
2022-09-07T07:04:43.565Z,18.78
2022-09-07T07:07:14.235Z,18.87
2022-09-07T07:09:42.629Z,19.09
2022-09-07T07:12:10.915Z,19.06
2022-09-07T07:14:44.093Z,19.19
2022-09-07T07:17:12.649Z,19.34
2022-09-07T07:19:39.438Z,19.30
2022-09-07T07:24:53.338Z,19.39
2022-09-07T07:27:21.560Z,19.32
2022-09-07T07:29:48.664Z,19.57
2022-09-07T07:32:15.944Z,19.61
2022-09-07T07:34:43.051Z,19.70
2022-09-07T07:37:11.920Z,19.89
2022-09-07T07:42:26.897Z,20.02
2022-09-07T07:47:43.605Z,20.05
2022-09-07T07:55:45.365Z,20.11
2022-09-07T07:58:12.718Z,20.24
2022-09-07T08:00:53.747Z,20.16
2022-09-07T08:03:25.160Z,20.31
2022-09-07T08:05:53.886Z,20.46
2022-09-07T08:08:24.121Z,20.47
2022-09-07T08:10:51.400Z,20.62
2022-09-07T08:13:19.055Z,20.71
2022-09-07T08:15:46.609Z,20.93
2022-09-07T08:18:17.640Z,20.98
2022-09-07T08:20:45.639Z,21.14
2022-09-07T08:23:12.440Z,21.07
2022-09-07T08:25:48.557Z,21.21
2022-09-07T08:28:15.335Z,21.24
2022-09-07T08:30:42.155Z,21.24
2022-09-07T08:33:09.370Z,21.48
2022-09-07T08:35:36.408Z,21.48
2022-09-07T08:38:03.349Z,21.51
2022-09-07T08:40:32.991Z,21.50
2022-09-07T08:43:49.115Z,21.62
2022-09-07T08:46:40.906Z,21.82
2022-09-07T08:49:20.600Z,21.78
2022-09-07T08:52:12.463Z,21.74
2022-09-07T08:54:43.513Z,21.96
2022-09-07T08:57:26.485Z,21.94
2022-09-07T09:00:21.983Z,22.07
2022-09-07T09:03:28.549Z,22.11
2022-09-07T09:05:58.990Z,22.28
2022-09-07T09:08:50.502Z,22.44
2022-09-07T09:11:49.838Z,22.57
2022-09-07T09:17:03.794Z,22.76
2022-09-07T09:19:39.744Z,22.56
2022-09-07T09:22:17.430Z,22.37
2022-09-07T09:24:54.614Z,22.36
2022-09-07T09:27:21.486Z,22.42
2022-09-07T09:29:48.329Z,22.61
2022-09-07T09:32:41.519Z,22.69
2022-09-07T09:35:15.646Z,22.52
2022-09-07T09:37:45.711Z,22.72
2022-09-07T09:40:30.348Z,22.71
2022-09-07T09:43:19.724Z,22.64
2022-09-07T09:48:41.071Z,23.32
2022-09-07T09:54:06.332Z,23.33
2022-09-07T09:56:42.855Z,23.46
2022-09-07T10:05:31.140Z,23.76
2022-09-07T10:07:58.181Z,23.88
2022-09-07T10:10:27.554Z,24.08
2022-09-07T10:12:56.027Z,24.14
2022-09-07T10:15:40.970Z,24.31
2022-09-07T10:18:38.600Z,24.56
2022-09-07T10:21:31.279Z,24.98
2022-09-07T10:24:05.422Z,25.46
2022-09-07T10:26:36.610Z,25.70
2022-09-07T10:29:14.013Z,25.75
2022-09-07T10:31:57.244Z,25.64
2022-09-07T10:35:05.263Z,25.75
2022-09-07T10:37:45.960Z,25.89
2022-09-07T10:40:48.312Z,25.89
2022-09-07T10:43:33.794Z,25.79
2022-09-07T10:46:11.176Z,25.30
2022-09-07T10:49:00.555Z,25.22
2022-09-07T10:51:37.783Z,25.07
2022-09-07T10:54:31.306Z,25.17
2022-09-07T10:57:17.304Z,25.27
2022-09-07T11:00:08.635Z,25.26
2022-09-07T11:05:54.128Z,25.37
2022-09-07T11:14:24.418Z,25.83
2022-09-07T11:17:04.344Z,25.89
2022-09-07T11:19:44.123Z,25.95
2022-09-07T11:22:10.961Z,25.79
2022-09-07T11:27:49.899Z,25.79
2022-09-07T11:30:27.429Z,25.94
2022-09-07T11:33:16.208Z,25.94
2022-09-07T11:36:11.997Z,25.99
2022-09-07T11:38:51.317Z,26.06
2022-09-07T11:41:32.279Z,25.85
2022-09-07T11:44:09.881Z,26.06
2022-09-07T11:46:49.212Z,26.14
2022-09-07T11:49:26.396Z,26.46
2022-09-07T11:52:57.301Z,26.29
2022-09-07T11:56:36.355Z,26.03
2022-09-07T11:59:20.372Z,26.05
2022-09-07T12:02:25.679Z,26.24
2022-09-07T12:05:57.355Z,26.27
2022-09-07T12:09:01.417Z,26.44
2022-09-07T12:12:13.684Z,26.59
2022-09-07T12:15:05.445Z,26.77
2022-09-07T12:17:55.401Z,27.16
2022-09-07T12:20:46.523Z,27.35
2022-09-07T12:23:16.544Z,27.57
2022-09-07T12:25:55.735Z,27.54
2022-09-07T12:28:25.260Z,27.43
2022-09-07T12:31:04.786Z,27.39
2022-09-07T12:34:27.608Z,27.05
2022-09-07T12:36:54.508Z,27.37
2022-09-07T12:39:46.795Z,27.55
2022-09-07T12:42:33.141Z,28.03
2022-09-07T12:45:29.218Z,27.72
2022-09-07T12:48:10.305Z,27.62
2022-09-07T12:54:31.686Z,27.42
2022-09-07T12:57:30.214Z,27.63
2022-09-07T13:00:23.317Z,27.65
2022-09-07T13:04:01.745Z,27.37
2022-09-07T13:07:10.183Z,27.65
2022-09-07T13:09:49.041Z,27.73
2022-09-07T13:15:41.088Z,27.60
2022-09-07T13:18:31.505Z,27.77
2022-09-07T13:21:07.550Z,27.85
2022-09-07T13:23:43.179Z,27.90
2022-09-07T13:26:14.113Z,28.09
2022-09-07T13:29:02.788Z,28.36
2022-09-07T13:31:45.348Z,28.07
2022-09-07T13:34:43.081Z,28.40
2022-09-07T13:37:20.673Z,28.26
2022-09-07T13:39:52.626Z,28.02
2022-09-07T13:42:31.878Z,27.60
2022-09-07T13:45:02.769Z,27.92
2022-09-07T13:48:17.471Z,28.43
2022-09-07T13:50:55.486Z,28.26
2022-09-07T13:53:56.029Z,28.22
2022-09-07T13:56:47.912Z,28.26
2022-09-07T13:59:29.391Z,28.40
2022-09-07T14:02:20.158Z,28.24
2022-09-07T14:04:51.613Z,28.19
2022-09-07T14:07:24.524Z,28.02
2022-09-07T14:10:08.264Z,27.81
2022-09-07T14:12:50.051Z,27.73
2022-09-07T14:15:52.661Z,27.68
2022-09-07T14:18:31.365Z,27.93
2022-09-07T14:21:11.562Z,27.90
2022-09-07T14:23:54.889Z,28.28
2022-09-07T14:26:24.914Z,28.28
2022-09-07T14:29:05.291Z,28.30
2022-09-07T14:31:35.459Z,28.24
2022-09-07T14:34:07.221Z,28.23
2022-09-07T14:36:46.477Z,28.14
2022-09-07T14:39:23.425Z,28.06
2022-09-07T14:41:53.180Z,28.05
2022-09-07T14:44:52.787Z,28.39
2022-09-07T14:47:34.058Z,28.32
2022-09-07T14:50:10.696Z,28.18
2022-09-07T14:53:33.583Z,28.00
2022-09-07T14:55:44.745Z,28.03
2022-09-07T14:58:19.674Z,27.98
2022-09-07T15:04:31.737Z,28.04
2022-09-07T15:07:30.270Z,28.24
2022-09-07T15:10:22.466Z,28.31
2022-09-07T15:12:58.567Z,28.37
2022-09-07T15:15:47.741Z,28.18
2022-09-07T15:19:02.915Z,28.35
2022-09-07T15:21:51.920Z,27.91
2022-09-07T15:24:38.475Z,27.77
2022-09-07T15:27:30.487Z,28.02
2022-09-07T15:30:03.548Z,27.86
2022-09-07T15:32:34.359Z,27.64
2022-09-07T15:35:01.429Z,27.81
2022-09-07T15:40:34.755Z,27.83
2022-09-07T15:43:08.551Z,27.70
2022-09-07T15:45:45.148Z,27.69
2022-09-07T15:48:22.148Z,27.66
2022-09-07T15:50:49.419Z,27.72
2022-09-07T15:56:03.892Z,27.73
2022-09-07T15:58:33.204Z,27.64
2022-09-07T16:03:53.232Z,27.63
2022-09-07T16:06:25.459Z,27.89
2022-09-07T16:08:53.239Z,27.97
2022-09-07T16:11:26.125Z,27.93
2022-09-07T16:14:01.348Z,27.61
2022-09-07T16:19:22.791Z,27.58
2022-09-07T16:21:50.005Z,27.58
2022-09-07T16:24:28.491Z,27.35
2022-09-07T16:26:55.727Z,27.49
2022-09-07T16:29:22.729Z,27.33
2022-09-07T16:34:45.778Z,27.41
2022-09-07T16:37:15.941Z,27.52
2022-09-07T16:39:42.998Z,27.58
2022-09-07T16:47:56.016Z,27.80
2022-09-07T16:50:28.178Z,27.81
2022-09-07T16:52:55.088Z,27.69
2022-09-07T16:55:22.166Z,27.59
2022-09-07T17:00:36.832Z,27.42
2022-09-07T17:03:09.470Z,27.18
2022-09-07T17:05:49.849Z,26.92
2022-09-07T17:08:17.327Z,26.84
2022-09-07T17:10:58.490Z,26.70
2022-09-07T17:13:33.671Z,26.49
2022-09-07T17:16:06.098Z,26.39
2022-09-07T17:21:33.215Z,26.01
2022-09-07T17:24:04.938Z,25.93
2022-09-07T17:26:35.470Z,25.76
2022-09-07T17:29:37.043Z,25.73
2022-09-07T17:32:26.728Z,25.72
2022-09-07T17:34:56.612Z,25.58
2022-09-07T17:37:25.695Z,25.50
2022-09-07T17:39:56.901Z,25.43
2022-09-07T17:43:38.790Z,25.31
2022-09-07T17:45:23.578Z,25.15
2022-09-07T17:47:50.766Z,25.05
2022-09-07T17:50:26.529Z,24.93
2022-09-07T17:53:00.106Z,24.82
2022-09-07T17:55:32.893Z,24.68
2022-09-07T17:58:04.806Z,24.68
2022-09-07T18:00:34.745Z,24.58
2022-09-07T18:03:04.906Z,24.40
2022-09-07T18:05:36.191Z,24.30
2022-09-07T18:08:03.485Z,24.12
2022-09-07T18:13:35.640Z,24.03
2022-09-07T18:16:24.119Z,23.95
2022-09-07T18:18:52.123Z,23.76
2022-09-07T18:21:27.557Z,23.65
2022-09-07T18:23:56.370Z,23.61
2022-09-07T18:26:29.817Z,23.60
2022-09-07T18:29:04.311Z,23.43
2022-09-07T18:31:32.062Z,23.39
2022-09-07T18:33:59.064Z,23.44
2022-09-07T18:39:15.310Z,23.33
2022-09-07T18:41:42.304Z,23.25
2022-09-07T18:46:56.285Z,23.11
2022-09-07T18:49:23.514Z,22.99
2022-09-07T18:54:38.714Z,22.80
2022-09-07T18:57:06.687Z,22.76
2022-09-07T18:59:34.520Z,22.79
2022-09-07T19:02:05.045Z,22.87
2022-09-07T19:07:28.820Z,22.90
2022-09-07T19:09:59.843Z,22.92
2022-09-07T19:12:29.595Z,22.83
2022-09-07T19:14:57.123Z,22.87
2022-09-07T19:17:26.319Z,22.86
2022-09-07T19:19:55.452Z,22.87
2022-09-07T19:22:24.255Z,22.84
2022-09-07T19:24:53.824Z,22.92
2022-09-07T19:27:22.602Z,23.01
2022-09-07T19:29:49.569Z,22.96
2022-09-07T19:32:18.692Z,22.95
2022-09-07T19:34:46.009Z,22.90
2022-09-07T19:37:15.832Z,22.88
2022-09-07T19:39:42.842Z,22.90
2022-09-07T19:42:09.715Z,22.85
2022-09-07T19:44:36.540Z,22.89
2022-09-07T19:47:03.377Z,22.80
2022-09-07T19:49:30.546Z,22.68
2022-09-07T19:51:57.428Z,22.58
2022-09-07T19:54:27.541Z,22.44
2022-09-07T19:56:54.385Z,22.22
2022-09-07T19:59:21.146Z,22.16
2022-09-07T20:01:49.441Z,22.03
2022-09-07T20:04:23.556Z,21.88
2022-09-07T20:06:51.492Z,21.75
2022-09-07T20:09:22.519Z,21.72
2022-09-07T20:11:53.860Z,21.70
2022-09-07T20:14:23.418Z,21.66
2022-09-07T20:16:50.329Z,21.62
2022-09-07T20:19:20.045Z,21.64
2022-09-07T20:21:48.109Z,21.59
2022-09-07T20:24:22.094Z,21.41
2022-09-07T20:26:54.977Z,21.28
2022-09-07T20:29:28.151Z,21.17
2022-09-07T20:31:57.858Z,21.11
2022-09-07T20:34:25.669Z,21.06
2022-09-07T20:36:54.871Z,21.01
2022-09-07T20:39:21.759Z,20.90
2022-09-07T20:41:48.528Z,20.95
2022-09-07T20:44:21.234Z,20.92
2022-09-07T20:46:47.884Z,20.98
2022-09-07T20:49:22.624Z,21.07
2022-09-07T20:51:49.638Z,21.17
2022-09-07T20:54:16.407Z,21.20
2022-09-07T20:56:44.475Z,21.33
2022-09-07T20:59:12.338Z,21.39
2022-09-07T21:01:39.167Z,21.51
2022-09-07T21:04:06.231Z,21.54
2022-09-07T21:06:36.603Z,21.58
2022-09-07T21:09:04.484Z,21.59
2022-09-07T21:11:33.666Z,21.69
2022-09-07T21:14:07.895Z,21.65
2022-09-07T21:16:36.277Z,21.67
2022-09-07T21:19:06.929Z,21.70
2022-09-07T21:21:45.544Z,21.67
2022-09-07T21:24:20.714Z,21.70
2022-09-07T21:26:48.602Z,21.73
2022-09-07T21:29:28.025Z,21.62
2022-09-07T21:31:58.311Z,21.67
2022-09-07T21:34:42.459Z,21.66
2022-09-07T21:37:13.011Z,21.61
2022-09-07T21:39:40.415Z,21.76
2022-09-07T21:42:12.888Z,21.76
2022-09-07T21:44:44.494Z,21.84
2022-09-07T21:47:14.905Z,21.84
2022-09-07T21:49:42.003Z,21.77
2022-09-07T21:52:08.831Z,21.77
2022-09-07T21:54:40.817Z,21.75
2022-09-07T21:57:14.552Z,21.90
2022-09-07T21:59:44.444Z,21.74
2022-09-07T22:02:11.394Z,21.72
2022-09-07T22:04:40.821Z,21.70
2022-09-07T22:07:12.991Z,21.77
2022-09-07T22:09:40.098Z,21.69
2022-09-07T22:12:17.191Z,21.77
2022-09-07T22:15:02.607Z,21.77
2022-09-07T22:18:01.207Z,21.76
2022-09-07T22:20:31.260Z,21.75
2022-09-07T22:23:01.321Z,21.78
2022-09-07T22:25:30.499Z,21.86
2022-09-07T22:28:03.658Z,21.86
2022-09-07T22:30:41.160Z,21.85
2022-09-07T22:33:13.023Z,21.80
2022-09-07T22:35:40.063Z,21.92
2022-09-07T22:38:12.630Z,21.86
2022-09-07T22:40:39.461Z,21.85
2022-09-07T22:43:10.474Z,21.86
2022-09-07T22:45:37.270Z,21.82
2022-09-07T22:48:06.993Z,21.83
2022-09-07T22:50:33.918Z,21.78
2022-09-07T22:53:00.680Z,21.80
2022-09-07T22:55:27.594Z,21.74
2022-09-07T22:57:58.341Z,21.79
2022-09-07T23:00:25.109Z,21.79
2022-09-07T23:02:51.769Z,21.83
2022-09-07T23:05:22.942Z,21.74
2022-09-07T23:07:49.707Z,21.75
2022-09-07T23:10:18.391Z,21.69
2022-09-07T23:12:52.252Z,21.70
2022-09-07T23:15:22.995Z,21.66
2022-09-07T23:17:51.128Z,21.75
2022-09-07T23:20:18.680Z,21.70
2022-09-07T23:22:50.982Z,21.69
2022-09-07T23:25:21.330Z,21.62
2022-09-07T23:27:57.489Z,21.72
2022-09-07T23:30:28.779Z,21.73
2022-09-07T23:32:55.696Z,21.65
2022-09-07T23:35:29.069Z,21.60
2022-09-07T23:38:03.561Z,21.54
2022-09-07T23:40:39.408Z,21.51
2022-09-07T23:43:32.545Z,21.50
2022-09-07T23:46:00.543Z,21.33
2022-09-07T23:48:30.105Z,21.30
2022-09-07T23:50:59.815Z,21.42
2022-09-07T23:53:29.572Z,21.35
2022-09-07T23:56:03.138Z,21.38
2022-09-07T23:58:31.149Z,21.33
